sensor_id;sensor_type;location;lat;lon;timestamp;temperature;humidity
36752;DHT22;22718;49.494;7.036;2022-10-14T00:01:26;12.90;99.90
36752;DHT22;22718;49.494;7.036;2022-10-14T00:03:53;12.90;99.90
36752;DHT22;22718;49.494;7.036;2022-10-14T00:06:25;12.90;99.90
36752;DHT22;22718;49.494;7.036;2022-10-14T00:08:51;12.90;99.90
36752;DHT22;22718;49.494;7.036;2022-10-14T00:11:22;12.90;99.90
36752;DHT22;22718;49.494;7.036;2022-10-14T00:13:48;12.90;99.90
36752;DHT22;22718;49.494;7.036;2022-10-14T00:16:20;12.90;99.90
36752;DHT22;22718;49.494;7.036;2022-10-14T00:18:46;12.90;99.90
36752;DHT22;22718;49.494;7.036;2022-10-14T00:21:12;12.90;99.90
36752;DHT22;22718;49.494;7.036;2022-10-14T00:23:38;12.90;99.90
36752;DHT22;22718;49.494;7.036;2022-10-14T00:26:04;12.90;99.90
36752;DHT22;22718;49.494;7.036;2022-10-14T00:28:30;12.90;99.90
36752;DHT22;22718;49.494;7.036;2022-10-14T00:30:59;12.90;99.90
36752;DHT22;22718;49.494;7.036;2022-10-14T00:33:27;12.90;99.90
36752;DHT22;22718;49.494;7.036;2022-10-14T00:36:00;12.90;99.90
36752;DHT22;22718;49.494;7.036;2022-10-14T00:38:26;12.90;99.90
36752;DHT22;22718;49.494;7.036;2022-10-14T00:40:53;12.90;99.90
36752;DHT22;22718;49.494;7.036;2022-10-14T00:43:19;12.90;99.90
36752;DHT22;22718;49.494;7.036;2022-10-14T00:45:45;13.00;99.90
36752;DHT22;22718;49.494;7.036;2022-10-14T00:48:11;12.90;99.90
36752;DHT22;22718;49.494;7.036;2022-10-14T00:50:39;13.00;99.90
36752;DHT22;22718;49.494;7.036;2022-10-14T00:53:06;13.00;99.90
36752;DHT22;22718;49.494;7.036;2022-10-14T00:55:31;13.00;99.90
36752;DHT22;22718;49.494;7.036;2022-10-14T00:57:58;13.00;99.90
36752;DHT22;22718;49.494;7.036;2022-10-14T01:00:23;12.90;99.90
36752;DHT22;22718;49.494;7.036;2022-10-14T01:02:49;12.90;99.90
36752;DHT22;22718;49.494;7.036;2022-10-14T01:05:16;13.00;99.90
36752;DHT22;22718;49.494;7.036;2022-10-14T01:07:55;13.00;99.90
36752;DHT22;22718;49.494;7.036;2022-10-14T01:10:49;13.00;99.90
36752;DHT22;22718;49.494;7.036;2022-10-14T01:13:39;13.00;99.90
36752;DHT22;22718;49.494;7.036;2022-10-14T01:21:47;13.10;99.90
36752;DHT22;22718;49.494;7.036;2022-10-14T01:27:22;13.10;99.90
36752;DHT22;22718;49.494;7.036;2022-10-14T01:32:37;13.10;99.90
36752;DHT22;22718;49.494;7.036;2022-10-14T01:35:32;13.10;99.90
36752;DHT22;22718;49.494;7.036;2022-10-14T01:38:18;13.20;99.90
36752;DHT22;22718;49.494;7.036;2022-10-14T01:43:18;13.10;99.90
36752;DHT22;22718;49.494;7.036;2022-10-14T01:45:46;13.10;99.90
36752;DHT22;22718;49.494;7.036;2022-10-14T01:48:16;13.20;99.90
36752;DHT22;22718;49.494;7.036;2022-10-14T01:50:44;13.20;99.90
36752;DHT22;22718;49.494;7.036;2022-10-14T01:53:19;13.10;99.90
36752;DHT22;22718;49.494;7.036;2022-10-14T01:55:47;13.10;99.90
36752;DHT22;22718;49.494;7.036;2022-10-14T01:58:15;13.20;99.90
36752;DHT22;22718;49.494;7.036;2022-10-14T02:00:41;13.10;99.90
36752;DHT22;22718;49.494;7.036;2022-10-14T02:03:08;13.10;99.90
36752;DHT22;22718;49.494;7.036;2022-10-14T02:05:56;13.10;99.90
36752;DHT22;22718;49.494;7.036;2022-10-14T02:11:16;13.10;99.90
36752;DHT22;22718;49.494;7.036;2022-10-14T02:16:42;13.10;99.90
36752;DHT22;22718;49.494;7.036;2022-10-14T02:20:35;13.10;99.90
36752;DHT22;22718;49.494;7.036;2022-10-14T02:22:32;13.10;99.90
36752;DHT22;22718;49.494;7.036;2022-10-14T02:25:05;13.10;99.90
36752;DHT22;22718;49.494;7.036;2022-10-14T02:27:34;13.10;99.90
36752;DHT22;22718;49.494;7.036;2022-10-14T02:30:00;13.10;99.90
36752;DHT22;22718;49.494;7.036;2022-10-14T02:32:29;13.10;99.90
36752;DHT22;22718;49.494;7.036;2022-10-14T02:34:57;13.10;99.90
36752;DHT22;22718;49.494;7.036;2022-10-14T02:37:24;13.10;99.90
36752;DHT22;22718;49.494;7.036;2022-10-14T02:40:06;13.10;99.90
36752;DHT22;22718;49.494;7.036;2022-10-14T02:42:33;13.10;99.90
36752;DHT22;22718;49.494;7.036;2022-10-14T02:44:59;13.20;99.90
36752;DHT22;22718;49.494;7.036;2022-10-14T02:47:25;13.20;99.90
36752;DHT22;22718;49.494;7.036;2022-10-14T02:49:51;13.20;99.90
36752;DHT22;22718;49.494;7.036;2022-10-14T02:52:17;13.20;99.90
36752;DHT22;22718;49.494;7.036;2022-10-14T02:54:43;13.20;99.90
36752;DHT22;22718;49.494;7.036;2022-10-14T02:57:09;13.30;99.90
36752;DHT22;22718;49.494;7.036;2022-10-14T02:59:34;13.30;99.90
36752;DHT22;22718;49.494;7.036;2022-10-14T03:02:00;13.30;99.90
36752;DHT22;22718;49.494;7.036;2022-10-14T03:04:26;13.30;99.90
36752;DHT22;22718;49.494;7.036;2022-10-14T03:06:51;13.30;99.90
36752;DHT22;22718;49.494;7.036;2022-10-14T03:09:18;13.30;99.90
36752;DHT22;22718;49.494;7.036;2022-10-14T03:11:44;13.30;99.90
36752;DHT22;22718;49.494;7.036;2022-10-14T03:14:09;13.30;99.90
36752;DHT22;22718;49.494;7.036;2022-10-14T03:16:35;13.30;99.90
36752;DHT22;22718;49.494;7.036;2022-10-14T03:19:00;13.30;99.90
36752;DHT22;22718;49.494;7.036;2022-10-14T03:21:26;13.30;99.90
36752;DHT22;22718;49.494;7.036;2022-10-14T03:23:52;13.30;99.90
36752;DHT22;22718;49.494;7.036;2022-10-14T03:26:17;13.30;99.90
36752;DHT22;22718;49.494;7.036;2022-10-14T03:28:43;13.20;99.90
36752;DHT22;22718;49.494;7.036;2022-10-14T03:31:09;13.20;99.90
36752;DHT22;22718;49.494;7.036;2022-10-14T03:33:34;13.20;99.90
36752;DHT22;22718;49.494;7.036;2022-10-14T03:36:00;13.30;99.90
36752;DHT22;22718;49.494;7.036;2022-10-14T03:38:25;13.30;99.90
36752;DHT22;22718;49.494;7.036;2022-10-14T03:40:51;13.30;99.90
36752;DHT22;22718;49.494;7.036;2022-10-14T03:43:17;13.30;99.90
36752;DHT22;22718;49.494;7.036;2022-10-14T03:45:44;13.30;99.90
36752;DHT22;22718;49.494;7.036;2022-10-14T03:48:09;13.30;99.90
36752;DHT22;22718;49.494;7.036;2022-10-14T03:50:35;13.30;99.90
36752;DHT22;22718;49.494;7.036;2022-10-14T03:53:01;13.30;99.90
36752;DHT22;22718;49.494;7.036;2022-10-14T03:55:26;13.40;99.90
36752;DHT22;22718;49.494;7.036;2022-10-14T03:57:52;13.30;99.90
36752;DHT22;22718;49.494;7.036;2022-10-14T04:00:18;13.40;99.90
36752;DHT22;22718;49.494;7.036;2022-10-14T04:02:43;13.40;99.90
36752;DHT22;22718;49.494;7.036;2022-10-14T04:05:09;13.40;99.90
36752;DHT22;22718;49.494;7.036;2022-10-14T04:07:35;13.40;99.90
36752;DHT22;22718;49.494;7.036;2022-10-14T04:10:01;13.40;99.90
36752;DHT22;22718;49.494;7.036;2022-10-14T04:12:26;13.40;99.90
36752;DHT22;22718;49.494;7.036;2022-10-14T04:14:52;13.40;99.90
36752;DHT22;22718;49.494;7.036;2022-10-14T04:17:21;13.40;99.90
36752;DHT22;22718;49.494;7.036;2022-10-14T04:19:47;13.30;99.90
36752;DHT22;22718;49.494;7.036;2022-10-14T04:22:12;13.30;99.90
36752;DHT22;22718;49.494;7.036;2022-10-14T04:24:38;13.30;99.90
36752;DHT22;22718;49.494;7.036;2022-10-14T04:27:03;13.30;99.90
36752;DHT22;22718;49.494;7.036;2022-10-14T04:29:29;13.40;99.90
36752;DHT22;22718;49.494;7.036;2022-10-14T04:31:55;13.30;99.90
36752;DHT22;22718;49.494;7.036;2022-10-14T04:34:20;13.30;99.90
36752;DHT22;22718;49.494;7.036;2022-10-14T04:36:47;13.30;99.90
36752;DHT22;22718;49.494;7.036;2022-10-14T04:39:13;13.30;99.90
36752;DHT22;22718;49.494;7.036;2022-10-14T04:41:40;13.30;99.90
36752;DHT22;22718;49.494;7.036;2022-10-14T04:44:06;13.30;99.90
36752;DHT22;22718;49.494;7.036;2022-10-14T04:46:32;13.30;99.90
36752;DHT22;22718;49.494;7.036;2022-10-14T04:48:58;13.30;99.90
36752;DHT22;22718;49.494;7.036;2022-10-14T04:51:23;13.30;99.90
36752;DHT22;22718;49.494;7.036;2022-10-14T04:53:49;13.30;99.90
36752;DHT22;22718;49.494;7.036;2022-10-14T04:56:15;13.30;99.90
36752;DHT22;22718;49.494;7.036;2022-10-14T04:58:40;13.30;99.90
36752;DHT22;22718;49.494;7.036;2022-10-14T05:01:06;13.20;99.90
36752;DHT22;22718;49.494;7.036;2022-10-14T05:03:32;13.20;99.90
36752;DHT22;22718;49.494;7.036;2022-10-14T05:05:57;13.20;99.90
36752;DHT22;22718;49.494;7.036;2022-10-14T05:08:23;13.20;99.90
36752;DHT22;22718;49.494;7.036;2022-10-14T05:10:49;13.10;99.90
36752;DHT22;22718;49.494;7.036;2022-10-14T05:13:14;13.10;99.90
36752;DHT22;22718;49.494;7.036;2022-10-14T05:15:40;13.20;99.90
36752;DHT22;22718;49.494;7.036;2022-10-14T05:18:06;13.20;99.90
36752;DHT22;22718;49.494;7.036;2022-10-14T05:20:31;13.20;99.90
36752;DHT22;22718;49.494;7.036;2022-10-14T05:22:57;13.20;99.90
36752;DHT22;22718;49.494;7.036;2022-10-14T05:25:22;13.20;99.90
36752;DHT22;22718;49.494;7.036;2022-10-14T05:27:48;13.20;99.90
36752;DHT22;22718;49.494;7.036;2022-10-14T05:30:14;13.20;99.90
36752;DHT22;22718;49.494;7.036;2022-10-14T05:32:40;13.20;99.90
36752;DHT22;22718;49.494;7.036;2022-10-14T05:35:06;13.20;99.90
36752;DHT22;22718;49.494;7.036;2022-10-14T05:37:32;13.30;99.90
36752;DHT22;22718;49.494;7.036;2022-10-14T05:39:58;13.20;99.90
36752;DHT22;22718;49.494;7.036;2022-10-14T05:42:24;13.20;99.90
36752;DHT22;22718;49.494;7.036;2022-10-14T05:44:49;13.30;99.90
36752;DHT22;22718;49.494;7.036;2022-10-14T05:47:15;13.20;99.90
36752;DHT22;22718;49.494;7.036;2022-10-14T05:49:41;13.30;99.90
36752;DHT22;22718;49.494;7.036;2022-10-14T05:52:07;13.30;99.90
36752;DHT22;22718;49.494;7.036;2022-10-14T05:54:32;13.30;99.90
36752;DHT22;22718;49.494;7.036;2022-10-14T05:56:58;13.30;99.90
36752;DHT22;22718;49.494;7.036;2022-10-14T05:59:23;13.30;99.90
36752;DHT22;22718;49.494;7.036;2022-10-14T06:01:49;13.40;99.90
36752;DHT22;22718;49.494;7.036;2022-10-14T06:04:17;13.30;99.90
36752;DHT22;22718;49.494;7.036;2022-10-14T06:06:43;13.30;99.90
36752;DHT22;22718;49.494;7.036;2022-10-14T06:09:08;13.30;99.90
36752;DHT22;22718;49.494;7.036;2022-10-14T06:11:34;13.30;99.90
36752;DHT22;22718;49.494;7.036;2022-10-14T06:13:59;13.30;99.90
36752;DHT22;22718;49.494;7.036;2022-10-14T06:16:25;13.30;99.90
36752;DHT22;22718;49.494;7.036;2022-10-14T06:18:51;13.30;99.90
36752;DHT22;22718;49.494;7.036;2022-10-14T06:21:16;13.20;99.90
36752;DHT22;22718;49.494;7.036;2022-10-14T06:23:42;13.20;99.90
36752;DHT22;22718;49.494;7.036;2022-10-14T06:26:07;13.30;99.90
36752;DHT22;22718;49.494;7.036;2022-10-14T06:28:34;13.30;99.90
36752;DHT22;22718;49.494;7.036;2022-10-14T06:31:00;13.30;99.90
36752;DHT22;22718;49.494;7.036;2022-10-14T06:33:28;13.30;99.90
36752;DHT22;22718;49.494;7.036;2022-10-14T06:35:54;13.40;99.90
36752;DHT22;22718;49.494;7.036;2022-10-14T06:38:20;13.40;99.90
36752;DHT22;22718;49.494;7.036;2022-10-14T06:40:45;13.40;99.90
36752;DHT22;22718;49.494;7.036;2022-10-14T06:43:14;13.30;99.90
36752;DHT22;22718;49.494;7.036;2022-10-14T06:45:39;13.40;99.90
36752;DHT22;22718;49.494;7.036;2022-10-14T06:48:05;13.40;99.90
36752;DHT22;22718;49.494;7.036;2022-10-14T06:50:31;13.40;99.90
36752;DHT22;22718;49.494;7.036;2022-10-14T06:52:56;13.40;99.90
36752;DHT22;22718;49.494;7.036;2022-10-14T06:55:22;13.40;99.90
36752;DHT22;22718;49.494;7.036;2022-10-14T06:57:47;13.40;99.90
36752;DHT22;22718;49.494;7.036;2022-10-14T07:00:13;13.40;99.90
36752;DHT22;22718;49.494;7.036;2022-10-14T07:02:39;13.40;99.90
36752;DHT22;22718;49.494;7.036;2022-10-14T07:05:05;13.50;99.90
36752;DHT22;22718;49.494;7.036;2022-10-14T07:07:31;13.50;99.90
36752;DHT22;22718;49.494;7.036;2022-10-14T07:09:57;13.50;99.90
36752;DHT22;22718;49.494;7.036;2022-10-14T07:12:23;13.60;99.90
36752;DHT22;22718;49.494;7.036;2022-10-14T07:14:49;13.60;99.90
36752;DHT22;22718;49.494;7.036;2022-10-14T07:17:15;13.60;99.90
36752;DHT22;22718;49.494;7.036;2022-10-14T07:19:40;13.50;99.90
36752;DHT22;22718;49.494;7.036;2022-10-14T07:22:06;13.60;99.90
36752;DHT22;22718;49.494;7.036;2022-10-14T07:24:31;13.60;99.90
36752;DHT22;22718;49.494;7.036;2022-10-14T07:26:57;13.60;99.90
36752;DHT22;22718;49.494;7.036;2022-10-14T07:29:23;13.60;99.90
36752;DHT22;22718;49.494;7.036;2022-10-14T07:31:49;13.60;99.90
36752;DHT22;22718;49.494;7.036;2022-10-14T07:34:14;13.60;99.90
36752;DHT22;22718;49.494;7.036;2022-10-14T07:36:40;13.60;99.90
36752;DHT22;22718;49.494;7.036;2022-10-14T07:39:06;13.70;99.90
36752;DHT22;22718;49.494;7.036;2022-10-14T07:41:32;13.70;99.90
36752;DHT22;22718;49.494;7.036;2022-10-14T07:44:00;13.80;99.90
36752;DHT22;22718;49.494;7.036;2022-10-14T07:46:28;13.80;99.90
36752;DHT22;22718;49.494;7.036;2022-10-14T07:48:58;13.80;99.90
36752;DHT22;22718;49.494;7.036;2022-10-14T07:51:24;13.80;99.90
36752;DHT22;22718;49.494;7.036;2022-10-14T07:53:50;13.80;99.90
36752;DHT22;22718;49.494;7.036;2022-10-14T07:56:17;13.80;99.90
36752;DHT22;22718;49.494;7.036;2022-10-14T07:58:43;13.90;99.90
36752;DHT22;22718;49.494;7.036;2022-10-14T08:01:08;13.90;99.90
36752;DHT22;22718;49.494;7.036;2022-10-14T08:03:34;13.80;99.90
36752;DHT22;22718;49.494;7.036;2022-10-14T08:06:01;13.90;99.90
36752;DHT22;22718;49.494;7.036;2022-10-14T08:08:27;13.80;99.90
36752;DHT22;22718;49.494;7.036;2022-10-14T08:11:28;13.90;99.90
36752;DHT22;22718;49.494;7.036;2022-10-14T08:13:54;13.90;99.90
36752;DHT22;22718;49.494;7.036;2022-10-14T08:16:22;13.90;99.90
36752;DHT22;22718;49.494;7.036;2022-10-14T08:18:49;13.90;99.90
36752;DHT22;22718;49.494;7.036;2022-10-14T08:21:15;13.90;99.90
36752;DHT22;22718;49.494;7.036;2022-10-14T08:23:41;13.90;99.90
36752;DHT22;22718;49.494;7.036;2022-10-14T08:26:18;13.90;99.90
36752;DHT22;22718;49.494;7.036;2022-10-14T08:28:44;14.00;99.90
36752;DHT22;22718;49.494;7.036;2022-10-14T08:31:09;14.00;99.90
36752;DHT22;22718;49.494;7.036;2022-10-14T08:33:35;14.00;99.90
36752;DHT22;22718;49.494;7.036;2022-10-14T08:36:00;14.00;99.90
36752;DHT22;22718;49.494;7.036;2022-10-14T08:38:26;14.00;99.90
36752;DHT22;22718;49.494;7.036;2022-10-14T08:43:49;14.10;99.90
36752;DHT22;22718;49.494;7.036;2022-10-14T08:46:42;14.10;99.90
36752;DHT22;22718;49.494;7.036;2022-10-14T08:52:13;14.10;99.90
36752;DHT22;22718;49.494;7.036;2022-10-14T08:54:44;14.10;99.90
36752;DHT22;22718;49.494;7.036;2022-10-14T08:57:12;14.10;99.90
36752;DHT22;22718;49.494;7.036;2022-10-14T08:59:40;14.00;99.90
36752;DHT22;22718;49.494;7.036;2022-10-14T09:04:55;14.10;99.90
36752;DHT22;22718;49.494;7.036;2022-10-14T09:07:23;14.10;99.90
36752;DHT22;22718;49.494;7.036;2022-10-14T09:09:52;14.10;99.90
36752;DHT22;22718;49.494;7.036;2022-10-14T09:12:22;14.20;99.90
36752;DHT22;22718;49.494;7.036;2022-10-14T09:17:30;14.20;99.90
36752;DHT22;22718;49.494;7.036;2022-10-14T09:22:33;14.30;99.90
36752;DHT22;22718;49.494;7.036;2022-10-14T09:24:59;14.30;99.90
36752;DHT22;22718;49.494;7.036;2022-10-14T09:27:27;14.30;99.90
36752;DHT22;22718;49.494;7.036;2022-10-14T09:29:59;14.40;99.90
36752;DHT22;22718;49.494;7.036;2022-10-14T09:32:43;14.40;99.90
36752;DHT22;22718;49.494;7.036;2022-10-14T09:37:50;14.40;99.90
36752;DHT22;22718;49.494;7.036;2022-10-14T09:50:52;14.60;99.90
36752;DHT22;22718;49.494;7.036;2022-10-14T09:53:28;14.70;99.90
36752;DHT22;22718;49.494;7.036;2022-10-14T09:55:57;14.70;99.90
36752;DHT22;22718;49.494;7.036;2022-10-14T09:58:45;14.70;99.90
36752;DHT22;22718;49.494;7.036;2022-10-14T10:01:17;14.70;99.90
36752;DHT22;22718;49.494;7.036;2022-10-14T10:03:43;14.70;99.90
36752;DHT22;22718;49.494;7.036;2022-10-14T10:06:13;14.70;99.90
36752;DHT22;22718;49.494;7.036;2022-10-14T10:08:52;14.80;99.90
36752;DHT22;22718;49.494;7.036;2022-10-14T10:14:26;14.70;99.90
36752;DHT22;22718;49.494;7.036;2022-10-14T10:20:16;14.70;99.90
36752;DHT22;22718;49.494;7.036;2022-10-14T10:22:28;14.70;99.90
36752;DHT22;22718;49.494;7.036;2022-10-14T10:27:38;14.60;99.90
36752;DHT22;22718;49.494;7.036;2022-10-14T10:41:00;14.90;99.90
36752;DHT22;22718;49.494;7.036;2022-10-14T10:43:52;15.00;99.90
36752;DHT22;22718;49.494;7.036;2022-10-14T10:51:54;15.00;99.90
36752;DHT22;22718;49.494;7.036;2022-10-14T10:54:38;14.90;99.90
36752;DHT22;22718;49.494;7.036;2022-10-14T10:59:52;15.00;99.90
36752;DHT22;22718;49.494;7.036;2022-10-14T11:02:59;15.00;99.90
36752;DHT22;22718;49.494;7.036;2022-10-14T11:11:36;15.20;99.90
36752;DHT22;22718;49.494;7.036;2022-10-14T11:14:45;15.20;99.90
36752;DHT22;22718;49.494;7.036;2022-10-14T11:17:42;15.20;99.90
36752;DHT22;22718;49.494;7.036;2022-10-14T11:23:05;15.20;99.90
36752;DHT22;22718;49.494;7.036;2022-10-14T11:31:10;15.30;99.90
36752;DHT22;22718;49.494;7.036;2022-10-14T11:33:59;15.30;99.90
36752;DHT22;22718;49.494;7.036;2022-10-14T11:36:43;15.20;99.90
36752;DHT22;22718;49.494;7.036;2022-10-14T11:42:06;15.30;99.90
36752;DHT22;22718;49.494;7.036;2022-10-14T11:44:42;15.30;99.90
36752;DHT22;22718;49.494;7.036;2022-10-14T11:49:51;15.20;99.90
36752;DHT22;22718;49.494;7.036;2022-10-14T11:52:25;15.30;99.90
36752;DHT22;22718;49.494;7.036;2022-10-14T11:55:02;15.20;99.90
36752;DHT22;22718;49.494;7.036;2022-10-14T11:57:42;15.20;99.90
36752;DHT22;22718;49.494;7.036;2022-10-14T12:00:12;15.30;99.90
36752;DHT22;22718;49.494;7.036;2022-10-14T12:05:40;15.30;99.90
36752;DHT22;22718;49.494;7.036;2022-10-14T12:08:21;15.20;99.90
36752;DHT22;22718;49.494;7.036;2022-10-14T12:13:46;15.10;99.90
36752;DHT22;22718;49.494;7.036;2022-10-14T12:16:14;15.20;99.90
36752;DHT22;22718;49.494;7.036;2022-10-14T12:18:42;15.10;99.90
36752;DHT22;22718;49.494;7.036;2022-10-14T12:23:43;15.20;99.90
36752;DHT22;22718;49.494;7.036;2022-10-14T12:28:36;15.20;99.90
36752;DHT22;22718;49.494;7.036;2022-10-14T12:31:36;15.20;99.90
36752;DHT22;22718;49.494;7.036;2022-10-14T12:36:42;15.30;99.90
36752;DHT22;22718;49.494;7.036;2022-10-14T12:42:04;15.40;99.90
36752;DHT22;22718;49.494;7.036;2022-10-14T12:47:30;15.40;99.90
36752;DHT22;22718;49.494;7.036;2022-10-14T12:50:01;15.50;99.90
36752;DHT22;22718;49.494;7.036;2022-10-14T12:52:32;15.50;99.90
36752;DHT22;22718;49.494;7.036;2022-10-14T12:55:00;15.60;99.90
36752;DHT22;22718;49.494;7.036;2022-10-14T12:57:34;15.60;99.90
36752;DHT22;22718;49.494;7.036;2022-10-14T13:00:05;15.70;99.90
36752;DHT22;22718;49.494;7.036;2022-10-14T13:02:42;15.80;99.90
36752;DHT22;22718;49.494;7.036;2022-10-14T13:05:21;15.90;99.90
36752;DHT22;22718;49.494;7.036;2022-10-14T13:08:09;16.00;99.90
36752;DHT22;22718;49.494;7.036;2022-10-14T13:24:05;16.50;99.90
36752;DHT22;22718;49.494;7.036;2022-10-14T13:39:43;16.50;99.90
36752;DHT22;22718;49.494;7.036;2022-10-14T13:42:33;16.40;99.90
36752;DHT22;22718;49.494;7.036;2022-10-14T13:45:13;16.40;99.90
36752;DHT22;22718;49.494;7.036;2022-10-14T13:47:45;16.30;99.90
36752;DHT22;22718;49.494;7.036;2022-10-14T13:50:26;16.10;99.90
36752;DHT22;22718;49.494;7.036;2022-10-14T13:52:57;16.00;99.90
36752;DHT22;22718;49.494;7.036;2022-10-14T13:55:25;15.90;99.90
36752;DHT22;22718;49.494;7.036;2022-10-14T13:58:11;15.90;99.90
36752;DHT22;22718;49.494;7.036;2022-10-14T14:00:40;15.90;99.90
36752;DHT22;22718;49.494;7.036;2022-10-14T14:03:24;16.00;99.90
36752;DHT22;22718;49.494;7.036;2022-10-14T14:05:51;16.00;99.90
36752;DHT22;22718;49.494;7.036;2022-10-14T14:08:27;16.10;99.90
36752;DHT22;22718;49.494;7.036;2022-10-14T14:10:56;16.10;99.90
36752;DHT22;22718;49.494;7.036;2022-10-14T14:13:24;16.10;99.90
36752;DHT22;22718;49.494;7.036;2022-10-14T14:15:52;16.20;99.90
36752;DHT22;22718;49.494;7.036;2022-10-14T14:18:26;16.30;99.90
36752;DHT22;22718;49.494;7.036;2022-10-14T14:20:56;16.30;99.90
36752;DHT22;22718;49.494;7.036;2022-10-14T14:23:23;16.40;99.90
36752;DHT22;22718;49.494;7.036;2022-10-14T14:25:49;16.40;99.90
36752;DHT22;22718;49.494;7.036;2022-10-14T14:28:17;16.50;99.90
36752;DHT22;22718;49.494;7.036;2022-10-14T14:30:49;16.60;99.90
36752;DHT22;22718;49.494;7.036;2022-10-14T14:33:18;16.70;99.90
36752;DHT22;22718;49.494;7.036;2022-10-14T14:36:35;16.70;99.90
36752;DHT22;22718;49.494;7.036;2022-10-14T14:38:57;16.70;99.90
36752;DHT22;22718;49.494;7.036;2022-10-14T14:41:26;16.60;99.90
36752;DHT22;22718;49.494;7.036;2022-10-14T14:43:54;16.60;99.90
36752;DHT22;22718;49.494;7.036;2022-10-14T14:46:37;16.60;99.90
36752;DHT22;22718;49.494;7.036;2022-10-14T14:49:05;16.50;99.90
36752;DHT22;22718;49.494;7.036;2022-10-14T14:51:37;16.40;99.90
36752;DHT22;22718;49.494;7.036;2022-10-14T14:54:04;16.40;99.90
36752;DHT22;22718;49.494;7.036;2022-10-14T14:56:36;16.40;99.90
36752;DHT22;22718;49.494;7.036;2022-10-14T14:59:28;16.40;99.90
36752;DHT22;22718;49.494;7.036;2022-10-14T15:01:55;16.40;99.90
36752;DHT22;22718;49.494;7.036;2022-10-14T15:04:24;16.30;99.90
36752;DHT22;22718;49.494;7.036;2022-10-14T15:06:57;16.30;99.90
36752;DHT22;22718;49.494;7.036;2022-10-14T15:09:45;16.20;99.90
36752;DHT22;22718;49.494;7.036;2022-10-14T15:12:20;16.20;99.90
36752;DHT22;22718;49.494;7.036;2022-10-14T15:14:47;16.10;99.90
36752;DHT22;22718;49.494;7.036;2022-10-14T15:17:24;16.00;99.90
36752;DHT22;22718;49.494;7.036;2022-10-14T15:19:51;16.00;99.90
36752;DHT22;22718;49.494;7.036;2022-10-14T15:30:47;16.10;99.90
36752;DHT22;22718;49.494;7.036;2022-10-14T15:33:19;16.10;99.90
36752;DHT22;22718;49.494;7.036;2022-10-14T15:35:56;16.00;99.90
36752;DHT22;22718;49.494;7.036;2022-10-14T15:38:23;16.00;99.90
36752;DHT22;22718;49.494;7.036;2022-10-14T15:40:49;15.90;99.90
36752;DHT22;22718;49.494;7.036;2022-10-14T15:43:26;15.90;99.90
36752;DHT22;22718;49.494;7.036;2022-10-14T15:45:53;15.80;99.90
36752;DHT22;22718;49.494;7.036;2022-10-14T15:48:40;15.70;99.90
36752;DHT22;22718;49.494;7.036;2022-10-14T15:51:16;15.50;99.90
36752;DHT22;22718;49.494;7.036;2022-10-14T15:53:44;15.40;99.90
36752;DHT22;22718;49.494;7.036;2022-10-14T15:56:10;15.30;99.90
36752;DHT22;22718;49.494;7.036;2022-10-14T15:58:35;15.20;99.90
36752;DHT22;22718;49.494;7.036;2022-10-14T16:01:02;15.20;99.90
36752;DHT22;22718;49.494;7.036;2022-10-14T16:03:29;15.10;99.90
36752;DHT22;22718;49.494;7.036;2022-10-14T16:05:56;15.10;99.90
36752;DHT22;22718;49.494;7.036;2022-10-14T16:08:22;15.00;99.90
36752;DHT22;22718;49.494;7.036;2022-10-14T16:10:48;15.00;99.90
36752;DHT22;22718;49.494;7.036;2022-10-14T16:13:14;14.90;99.90
36752;DHT22;22718;49.494;7.036;2022-10-14T16:15:47;14.90;99.90
36752;DHT22;22718;49.494;7.036;2022-10-14T16:18:13;14.90;99.90
36752;DHT22;22718;49.494;7.036;2022-10-14T16:20:39;14.80;99.90
36752;DHT22;22718;49.494;7.036;2022-10-14T16:23:05;14.70;99.90
36752;DHT22;22718;49.494;7.036;2022-10-14T16:25:36;14.70;99.90
36752;DHT22;22718;49.494;7.036;2022-10-14T16:28:05;14.70;99.90
36752;DHT22;22718;49.494;7.036;2022-10-14T16:30:34;14.70;99.90
36752;DHT22;22718;49.494;7.036;2022-10-14T16:33:01;14.70;99.90
36752;DHT22;22718;49.494;7.036;2022-10-14T16:35:27;14.60;99.90
36752;DHT22;22718;49.494;7.036;2022-10-14T16:37:52;14.60;99.90
36752;DHT22;22718;49.494;7.036;2022-10-14T16:40:19;14.60;99.90
36752;DHT22;22718;49.494;7.036;2022-10-14T16:42:44;14.60;99.90
36752;DHT22;22718;49.494;7.036;2022-10-14T16:45:10;14.60;99.90
36752;DHT22;22718;49.494;7.036;2022-10-14T16:47:36;14.50;99.90
36752;DHT22;22718;49.494;7.036;2022-10-14T16:50:03;14.50;99.90
36752;DHT22;22718;49.494;7.036;2022-10-14T16:52:29;14.50;99.90
36752;DHT22;22718;49.494;7.036;2022-10-14T16:55:16;14.50;99.90
36752;DHT22;22718;49.494;7.036;2022-10-14T16:57:41;14.50;99.90
36752;DHT22;22718;49.494;7.036;2022-10-14T17:00:08;14.50;99.90
36752;DHT22;22718;49.494;7.036;2022-10-14T17:02:33;14.50;99.90
36752;DHT22;22718;49.494;7.036;2022-10-14T17:04:59;14.50;99.90
36752;DHT22;22718;49.494;7.036;2022-10-14T17:07:25;14.40;99.90
36752;DHT22;22718;49.494;7.036;2022-10-14T17:09:50;14.40;99.90
36752;DHT22;22718;49.494;7.036;2022-10-14T17:12:16;14.50;99.90
36752;DHT22;22718;49.494;7.036;2022-10-14T17:14:42;14.40;99.90
36752;DHT22;22718;49.494;7.036;2022-10-14T17:17:08;14.40;99.90
36752;DHT22;22718;49.494;7.036;2022-10-14T17:19:35;14.40;99.90
36752;DHT22;22718;49.494;7.036;2022-10-14T17:22:01;14.40;99.90
36752;DHT22;22718;49.494;7.036;2022-10-14T17:24:28;14.30;99.90
36752;DHT22;22718;49.494;7.036;2022-10-14T17:26:54;14.30;99.90
36752;DHT22;22718;49.494;7.036;2022-10-14T17:29:20;14.30;99.90
36752;DHT22;22718;49.494;7.036;2022-10-14T17:31:46;14.30;99.90
36752;DHT22;22718;49.494;7.036;2022-10-14T17:34:11;14.30;99.90
36752;DHT22;22718;49.494;7.036;2022-10-14T17:36:38;14.30;99.90
36752;DHT22;22718;49.494;7.036;2022-10-14T17:39:06;14.20;99.90
36752;DHT22;22718;49.494;7.036;2022-10-14T17:41:32;14.20;99.90
36752;DHT22;22718;49.494;7.036;2022-10-14T17:43:59;14.20;99.90
36752;DHT22;22718;49.494;7.036;2022-10-14T17:46:27;14.20;99.90
36752;DHT22;22718;49.494;7.036;2022-10-14T17:48:56;14.20;99.90
36752;DHT22;22718;49.494;7.036;2022-10-14T17:51:23;14.10;99.90
36752;DHT22;22718;49.494;7.036;2022-10-14T17:54:01;14.10;99.90
36752;DHT22;22718;49.494;7.036;2022-10-14T17:56:28;14.10;99.90
36752;DHT22;22718;49.494;7.036;2022-10-14T17:58:56;14.20;99.90
36752;DHT22;22718;49.494;7.036;2022-10-14T18:01:23;14.20;99.90
36752;DHT22;22718;49.494;7.036;2022-10-14T18:03:49;14.20;99.90
36752;DHT22;22718;49.494;7.036;2022-10-14T18:06:26;14.20;99.90
36752;DHT22;22718;49.494;7.036;2022-10-14T18:08:54;14.20;99.90
36752;DHT22;22718;49.494;7.036;2022-10-14T18:11:23;14.30;99.90
36752;DHT22;22718;49.494;7.036;2022-10-14T18:13:50;14.30;99.90